createdAt,value
2023-04-07T00:01:44.535Z,21.89
2023-04-07T00:06:48.748Z,21.86
2023-04-07T00:11:51.833Z,21.76
2023-04-07T00:16:54.624Z,21.71
2023-04-07T00:21:58.716Z,21.67
2023-04-07T00:27:02.100Z,21.59
2023-04-07T00:32:04.934Z,21.53
2023-04-07T00:37:09.413Z,21.52
2023-04-07T00:42:12.315Z,21.48
2023-04-07T00:47:16.502Z,21.43
2023-04-07T00:52:27.182Z,21.41
2023-04-07T00:57:30.018Z,21.37
2023-04-07T01:02:38.918Z,21.32
2023-04-07T01:07:53.727Z,21.27
2023-04-07T01:13:06.745Z,21.26
2023-04-07T01:18:14.313Z,21.21
2023-04-07T01:23:26.619Z,21.17
2023-04-07T01:28:45.966Z,21.14
2023-04-07T01:33:51.523Z,21.10
2023-04-07T01:38:54.940Z,21.09
2023-04-07T01:43:58.676Z,21.04
2023-04-07T01:49:03.986Z,21.05
2023-04-07T01:54:07.186Z,21.01
2023-04-07T01:59:10.674Z,20.99
2023-04-07T02:04:23.252Z,20.96
2023-04-07T02:09:31.100Z,20.93
2023-04-07T02:14:35.277Z,20.91
2023-04-07T02:19:47.650Z,20.89
2023-04-07T02:24:50.840Z,20.86
2023-04-07T02:29:54.314Z,20.85
2023-04-07T02:35:00.841Z,20.81
2023-04-07T02:40:04.232Z,20.80
2023-04-07T02:45:08.770Z,20.75
2023-04-07T02:50:14.566Z,20.74
2023-04-07T02:55:18.488Z,20.71
2023-04-07T03:00:21.789Z,20.70
2023-04-07T03:05:38.281Z,20.66
2023-04-07T03:10:42.345Z,20.63
2023-04-07T03:15:46.077Z,20.60
2023-04-07T03:20:52.886Z,20.59
2023-04-07T03:25:55.902Z,20.57
2023-04-07T03:30:59.271Z,20.56
2023-04-07T03:36:03.614Z,20.56
2023-04-07T03:41:07.133Z,20.52
2023-04-07T03:46:10.265Z,20.51
2023-04-07T03:51:14.909Z,20.49
2023-04-07T03:56:17.952Z,20.49
2023-04-07T04:01:24.300Z,20.47
2023-04-07T04:06:28.861Z,20.45
2023-04-07T04:11:39.892Z,20.41
2023-04-07T04:16:43.281Z,20.39
2023-04-07T04:22:01.753Z,20.40
2023-04-07T04:27:10.267Z,20.38
2023-04-07T04:32:13.109Z,20.36
2023-04-07T04:37:20.039Z,20.35
2023-04-07T04:42:23.136Z,20.32
2023-04-07T04:47:27.254Z,20.30
2023-04-07T04:52:31.874Z,20.30
2023-04-07T04:57:36.160Z,20.27
2023-04-07T05:02:43.833Z,20.25
2023-04-07T05:07:48.665Z,20.23
2023-04-07T05:12:52.010Z,20.21
2023-04-07T05:17:54.964Z,20.24
2023-04-07T05:23:03.255Z,20.21
2023-04-07T05:28:09.397Z,20.23
2023-04-07T05:33:13.275Z,20.22
2023-04-07T05:38:22.434Z,20.26
2023-04-07T05:43:26.450Z,20.23
2023-04-07T05:48:29.314Z,20.22
2023-04-07T05:53:33.761Z,20.22
2023-04-07T05:58:36.716Z,20.17
2023-04-07T06:03:41.166Z,20.19
2023-04-07T06:08:56.145Z,20.20
2023-04-07T06:14:00.412Z,20.18
2023-04-07T06:19:03.686Z,20.18
2023-04-07T06:24:08.777Z,20.18
2023-04-07T06:29:11.821Z,20.18
2023-04-07T06:34:15.154Z,20.16
2023-04-07T06:39:19.968Z,20.18
2023-04-07T06:44:22.746Z,20.18
2023-04-07T06:49:25.550Z,20.18
2023-04-07T06:54:29.635Z,20.20
2023-04-07T06:59:32.547Z,20.22
2023-04-07T07:04:35.993Z,19.99
2023-04-07T07:09:40.465Z,17.01
2023-04-07T07:14:43.194Z,16.94
2023-04-07T07:19:46.095Z,18.80
2023-04-07T07:24:51.166Z,19.33
2023-04-07T07:29:54.040Z,19.65
2023-04-07T07:34:56.825Z,19.86
2023-04-07T07:40:01.611Z,20.07
2023-04-07T07:45:05.104Z,20.22
2023-04-07T07:50:08.373Z,20.34
2023-04-07T07:55:12.639Z,20.45
2023-04-07T08:00:15.694Z,20.49
2023-04-07T08:05:18.491Z,20.60
2023-04-07T08:10:24.823Z,20.26
2023-04-07T08:15:27.709Z,20.56
2023-04-07T08:20:30.617Z,20.70
2023-04-07T08:25:36.142Z,20.83
2023-04-07T08:30:39.053Z,20.67
2023-04-07T08:35:42.168Z,20.71
2023-04-07T08:40:47.606Z,20.88
2023-04-07T08:45:53.504Z,21.00
2023-04-07T08:50:57.660Z,21.05
2023-04-07T08:56:03.277Z,21.07
2023-04-07T09:01:07.022Z,21.06
2023-04-07T09:06:11.817Z,21.10
2023-04-07T09:11:16.006Z,21.13
2023-04-07T09:16:19.737Z,21.19
2023-04-07T09:21:22.631Z,21.22
2023-04-07T09:26:30.395Z,21.26
2023-04-07T09:31:46.727Z,21.25
2023-04-07T09:36:49.498Z,21.29
2023-04-07T09:41:54.021Z,21.34
2023-04-07T09:46:58.092Z,21.35
2023-04-07T09:52:07.434Z,21.39
2023-04-07T09:57:13.683Z,21.42
2023-04-07T10:02:16.814Z,21.42
2023-04-07T10:07:19.767Z,21.44
2023-04-07T10:12:24.898Z,21.48
2023-04-07T10:17:29.391Z,21.56
2023-04-07T10:22:34.374Z,21.61
2023-04-07T10:27:49.981Z,21.67
2023-04-07T10:32:54.883Z,21.70
2023-04-07T10:38:16.239Z,21.69
2023-04-07T10:43:39.812Z,21.71
2023-04-07T10:48:42.696Z,21.77
2023-04-07T10:54:20.528Z,21.77
2023-04-07T10:59:27.572Z,21.80
2023-04-07T11:04:37.768Z,21.86
2023-04-07T11:09:42.358Z,21.87
2023-04-07T11:14:46.535Z,21.88
2023-04-07T11:19:53.125Z,21.93
2023-04-07T11:24:56.023Z,21.94
2023-04-07T11:30:00.461Z,21.95
2023-04-07T11:35:07.775Z,21.93
2023-04-07T11:40:11.662Z,22.05
2023-04-07T11:45:20.803Z,22.04
2023-04-07T11:50:44.593Z,22.09
2023-04-07T11:55:47.725Z,22.06
2023-04-07T12:00:58.607Z,22.02
2023-04-07T12:06:02.172Z,21.99
2023-04-07T12:11:05.704Z,22.01
2023-04-07T12:16:10.202Z,22.03
2023-04-07T12:21:13.086Z,22.06
2023-04-07T12:26:16.292Z,22.12
2023-04-07T12:31:20.557Z,22.12
2023-04-07T12:36:23.359Z,22.14
2023-04-07T12:41:27.650Z,22.17
2023-04-07T12:46:32.120Z,22.20
2023-04-07T12:51:35.514Z,22.17
2023-04-07T12:56:38.297Z,22.21
2023-04-07T13:01:42.678Z,22.23
2023-04-07T13:06:45.605Z,22.13
2023-04-07T13:11:48.572Z,22.23
2023-04-07T13:16:52.762Z,22.31
2023-04-07T13:21:55.902Z,22.36
2023-04-07T13:26:59.489Z,22.30
2023-04-07T13:32:07.883Z,20.97
2023-04-07T13:37:11.330Z,20.21
2023-04-07T13:42:17.715Z,20.09
2023-04-07T13:47:22.594Z,20.20
2023-04-07T13:52:25.419Z,19.69
2023-04-07T13:57:28.457Z,20.65
2023-04-07T14:02:32.959Z,21.67
2023-04-07T14:07:36.071Z,21.97
2023-04-07T14:12:39.093Z,21.96
2023-04-07T14:17:43.269Z,22.17
2023-04-07T14:22:46.333Z,22.35
2023-04-07T14:27:49.382Z,22.56
2023-04-07T14:32:53.593Z,22.62
2023-04-07T14:37:56.629Z,22.82
2023-04-07T14:48:07.760Z,22.75
2023-04-07T14:53:10.608Z,22.71
2023-04-07T14:58:13.487Z,22.70
2023-04-07T15:03:17.822Z,22.86
2023-04-07T15:08:21.130Z,22.93
2023-04-07T15:13:24.054Z,23.08
2023-04-07T15:18:28.342Z,23.13
2023-04-07T15:23:32.138Z,23.03
2023-04-07T15:28:35.160Z,23.19
2023-04-07T15:33:40.762Z,23.22
2023-04-07T15:38:43.608Z,23.21
2023-04-07T15:43:46.848Z,23.30
2023-04-07T15:48:51.823Z,23.20
2023-04-07T15:53:55.292Z,23.43
2023-04-07T15:58:58.121Z,23.56
2023-04-07T16:04:02.535Z,23.62
2023-04-07T16:09:05.665Z,23.50
2023-04-07T16:14:09.288Z,23.40
2023-04-07T16:19:14.376Z,23.30
2023-04-07T16:24:17.186Z,23.28
2023-04-07T16:29:21.094Z,23.20
2023-04-07T16:34:25.177Z,23.21
2023-04-07T16:39:29.578Z,23.20
2023-04-07T16:44:33.053Z,23.27
2023-04-07T16:49:37.920Z,23.12
2023-04-07T16:54:40.673Z,22.50
2023-04-07T16:59:44.104Z,21.29
2023-04-07T17:04:48.258Z,22.05
2023-04-07T17:09:50.994Z,22.67
2023-04-07T17:14:53.736Z,22.90
2023-04-07T17:19:59.849Z,22.92
2023-04-07T17:25:02.736Z,22.90
2023-04-07T17:30:07.583Z,22.86
2023-04-07T17:35:12.132Z,22.69
2023-04-07T17:40:15.344Z,22.77
2023-04-07T17:45:18.823Z,22.78
2023-04-07T17:50:22.946Z,22.78
2023-04-07T17:55:26.045Z,22.75
2023-04-07T18:00:29.231Z,22.74
2023-04-07T18:05:33.626Z,22.73
2023-04-07T18:10:36.544Z,22.72
2023-04-07T18:15:39.392Z,22.69
2023-04-07T18:20:43.668Z,22.63
2023-04-07T18:25:47.077Z,22.64
2023-04-07T18:30:49.862Z,22.60
2023-04-07T18:35:53.993Z,22.60
2023-04-07T18:40:56.873Z,22.56
2023-04-07T18:45:59.792Z,22.43
2023-04-07T18:51:04.130Z,22.56
2023-04-07T18:56:07.168Z,22.60
2023-04-07T19:01:10.049Z,22.60
2023-04-07T19:06:16.454Z,22.56
2023-04-07T19:11:19.289Z,22.55
2023-04-07T19:16:24.425Z,22.53
2023-04-07T19:21:28.724Z,22.55
2023-04-07T19:26:31.627Z,22.47
2023-04-07T19:31:34.421Z,22.47
2023-04-07T19:36:38.778Z,22.34
2023-04-07T19:41:41.714Z,22.23
2023-04-07T19:46:44.699Z,22.25
2023-04-07T19:51:49.125Z,22.13
2023-04-07T19:56:51.980Z,22.13
2023-04-07T20:01:54.933Z,22.12
2023-04-07T20:06:59.143Z,22.05
2023-04-07T20:12:02.147Z,22.02
2023-04-07T20:17:05.320Z,22.07
2023-04-07T20:22:10.068Z,22.12
2023-04-07T20:27:12.950Z,22.06
2023-04-07T20:32:15.765Z,22.10
2023-04-07T20:37:20.568Z,22.08
2023-04-07T20:42:23.361Z,22.01
2023-04-07T20:47:26.148Z,22.10
2023-04-07T20:57:33.091Z,22.34
2023-04-07T21:02:36.109Z,21.93
2023-04-07T21:07:40.457Z,21.86
2023-04-07T21:12:43.244Z,21.81
2023-04-07T21:17:46.175Z,21.84
2023-04-07T21:22:50.409Z,21.75
2023-04-07T21:27:53.204Z,21.73
2023-04-07T21:32:56.008Z,21.74
2023-04-07T21:38:00.139Z,21.72
2023-04-07T21:43:02.974Z,21.64
2023-04-07T21:48:06.451Z,21.71
2023-04-07T21:53:10.934Z,21.67
2023-04-07T21:58:13.692Z,21.58
2023-04-07T22:03:17.073Z,21.69
2023-04-07T22:08:21.392Z,22.06
2023-04-07T22:13:24.211Z,22.05
2023-04-07T22:18:27.150Z,21.90
2023-04-07T22:23:31.292Z,21.84
2023-04-07T22:28:34.310Z,21.74
2023-04-07T22:33:37.682Z,21.80
2023-04-07T22:38:41.839Z,22.42
2023-04-07T22:43:44.583Z,22.75
2023-04-07T22:48:49.003Z,22.84
2023-04-07T22:53:53.399Z,22.87
2023-04-07T22:58:57.415Z,22.93
2023-04-07T23:04:00.447Z,23.03
2023-04-07T23:09:04.714Z,23.08
2023-04-07T23:14:07.911Z,23.13
2023-04-07T23:19:15.451Z,23.13
2023-04-07T23:24:20.010Z,23.11
2023-04-07T23:29:22.725Z,23.09
2023-04-07T23:34:25.954Z,23.04
2023-04-07T23:39:30.428Z,23.11
2023-04-07T23:44:33.213Z,23.14
2023-04-07T23:49:36.142Z,23.18
2023-04-07T23:54:40.235Z,23.27
2023-04-07T23:59:42.996Z,23.23
